Time;durP1;ratioP1;P1;durP2;ratioP2;P2;SDS_P1;SDS_P2;PMS_P1;PMS_P2;Temp;Humidity;BMP_temperature;BMP_pressure;BME280_temperature;BME280_humidity;BME280_pressure;Samples;Min_cycle;Max_cycle;Signal;HPM_P1;HPM_P2
2023/03/30 00:00:41;;;;;;;;;3.75;3.75;;;;;17.44;48.62;100338.09;5036652;28;45424;-54
2023/03/30 00:03:07;;;;;;;;;6.00;5.00;;;;;17.50;49.00;100332.59;5001846;28;46498;-55
2023/03/30 00:05:33;;;;;;;;;5.25;5.25;;;;;17.25;49.26;100296.09;5036468;28;45678;-56
2023/03/30 00:07:59;;;;;;;;;5.40;5.40;;;;;17.42;49.42;100312.56;5018776;28;45280;-57
2023/03/30 00:10:26;;;;;;;;;4.25;3.00;;;;;17.45;49.82;100311.19;5018761;28;45281;-56
2023/03/30 00:12:51;;;;;;;;;4.20;4.20;;;;;17.43;49.78;100311.47;5036176;28;46587;-56
2023/03/30 00:15:18;;;;;;;;;3.75;3.75;;;;;17.44;50.05;100282.63;5018391;28;45357;-56
2023/03/30 00:17:44;;;;;;;;;4.00;4.00;;;;;17.43;50.54;100280.94;5036042;28;45438;-56
2023/03/30 00:20:12;;;;;;;;;4.50;4.00;;;;;17.36;50.92;100272.03;5018772;28;45357;-56
2023/03/30 00:22:40;;;;;;;;;4.00;4.00;;;;;17.42;50.77;100290.38;5018230;28;46133;-57
2023/03/30 00:25:07;;;;;;;;;4.20;4.20;;;;;17.42;51.28;100301.47;5036056;28;45898;-56
2023/03/30 00:27:33;;;;;;;;;4.00;4.00;;;;;17.31;50.77;100267.31;5035930;28;45724;-56
2023/03/30 00:29:59;;;;;;;;;4.00;4.00;;;;;17.36;50.88;100258.16;5035217;28;45464;-54
2023/03/30 00:32:24;;;;;;;;;4.00;4.00;;;;;17.31;50.96;100269.22;5035520;28;45788;-56
2023/03/30 00:34:50;;;;;;;;;7.50;5.50;;;;;17.14;50.95;100242.50;5035681;28;45326;-54
2023/03/30 00:37:15;;;;;;;;;3.25;3.25;;;;;17.24;51.26;100254.78;5018023;28;45468;-56
2023/03/30 00:39:42;;;;;;;;;5.75;5.75;;;;;17.29;50.56;100263.94;5018017;28;45433;-55
2023/03/30 00:42:14;;;;;;;;;4.00;4.00;;;;;17.02;50.69;100236.34;5019301;28;47765;-57
2023/03/30 00:45:05;;;;;;;;;4.60;3.40;;;;;17.22;50.89;100268.09;5038235;28;45459;-56
2023/03/30 00:47:30;;;;;;;;;4.60;2.40;;;;;17.22;51.01;100274.44;5053363;28;45410;-56
2023/03/30 00:49:56;;;;;;;;;5.75;5.75;;;;;17.16;51.05;100243.09;5055865;28;45365;-55
2023/03/30 00:52:23;;;;;;;;;5.75;5.75;;;;;17.20;51.33;100271.13;5020915;28;47597;-56
2023/03/30 00:54:52;;;;;;;;;5.80;5.80;;;;;17.18;51.22;100274.16;5037698;28;45465;-58
2023/03/30 00:57:19;;;;;;;;;3.80;3.80;;;;;17.09;51.05;100267.44;5055211;28;45534;-55
2023/03/30 00:59:46;;;;;;;;;5.40;4.40;;;;;17.09;51.11;100256.34;5003850;28;45430;-55
2023/03/30 01:02:11;;;;;;;;;5.00;3.60;;;;;17.16;51.01;100281.91;5035786;28;46571;-55
2023/03/30 01:04:37;;;;;;;;;4.00;4.00;;;;;17.16;51.23;100258.88;5017680;28;45381;-57
2023/03/30 01:07:03;;;;;;;;;4.80;3.80;;;;;17.10;51.21;100255.25;5035735;28;45247;-55
2023/03/30 01:09:29;;;;;;;;;7.40;3.80;;;;;17.12;51.44;100258.56;5001157;28;45573;-54
2023/03/30 01:11:54;;;;;;;;;4.00;4.00;;;;;16.94;51.58;100241.28;5035277;28;46138;-55
2023/03/30 01:14:20;;;;;;;;;6.75;4.50;;;;;17.08;51.47;100257.47;5033626;28;45450;-54
2023/03/30 01:17:07;;;;;;;;;3.50;3.50;;;;;16.85;51.69;100237.31;5034593;28;45445;-59
2023/03/30 01:19:42;;;;;;;;;3.60;3.60;;;;;17.02;51.82;100266.84;5034078;28;45469;-57
2023/03/30 01:22:41;;;;;;;;;3.40;3.40;;;;;17.00;52.15;100271.78;5033738;28;46733;-55
2023/03/30 01:25:28;;;;;;;;;3.00;3.00;;;;;16.98;52.53;100265.66;5034926;28;45331;-54
2023/03/30 01:28:09;;;;;;;;;3.60;2.20;;;;;16.99;52.38;100264.56;5035759;28;45477;-54
2023/03/30 01:31:02;;;;;;;;;2.40;2.40;;;;;16.67;52.67;100206.13;5035706;28;45663;-56
2023/03/30 01:33:33;;;;;;;;;2.40;2.00;;;;;16.91;52.83;100261.19;5019202;28;46083;-56
2023/03/30 01:36:08;;;;;;;;;1.20;1.20;;;;;16.49;52.76;100204.63;5033723;28;45371;-56
2023/03/30 01:38:52;;;;;;;;;4.80;2.60;;;;;16.85;52.87;100286.38;5034915;28;45326;-56
2023/03/30 01:41:42;;;;;;;;;2.80;2.80;;;;;16.78;53.19;100297.66;5035243;28;45271;-56
2023/03/30 01:44:29;;;;;;;;;2.40;2.40;;;;;16.77;53.33;100296.00;5016730;28;46529;-55
2023/03/30 01:47:26;;;;;;;;;1.00;1.00;;;;;16.78;53.43;100297.66;5034834;28;45421;-56
2023/03/30 01:50:25;;;;;;;;;4.00;2.20;;;;;16.77;53.33;100279.38;5017736;28;45420;-57
2023/03/30 01:53:14;;;;;;;;;2.00;1.00;;;;;16.74;53.29;100294.59;4996037;28;45340;-57
2023/03/30 01:55:49;;;;;;;;;1.60;1.60;;;;;16.42;53.47;100233.66;5015703;28;45929;-53
2023/03/30 01:58:22;;;;;;;;;2.00;2.00;;;;;16.71;53.27;100286.78;5016458;28;45405;-53
2023/03/30 02:00:50;;;;;;;;;3.40;2.20;;;;;16.55;52.99;100273.94;5035064;28;45378;-56
2023/03/30 02:03:27;;;;;;;;;4.20;2.40;;;;;16.69;53.46;100274.34;5033537;28;45391;-55
2023/03/30 02:05:55;;;;;;;;;3.60;1.60;;;;;16.56;53.22;100236.81;5050409;28;45384;-57
2023/03/30 02:08:22;;;;;;;;;2.00;2.00;;;;;16.69;53.02;100249.41;5049981;28;45453;-56
2023/03/30 02:10:48;;;;;;;;;2.00;2.00;;;;;16.65;52.98;100272.06;5016261;28;45218;-55
2023/03/30 02:13:14;;;;;;;;;2.75;1.75;;;;;16.61;53.06;100282.03;5016973;28;45833;-55
2023/03/30 02:15:47;;;;;;;;;3.00;2.00;;;;;16.56;52.96;100270.91;5016890;28;46213;-60
2023/03/30 02:18:13;;;;;;;;;4.00;2.80;;;;;16.30;53.36;100259.59;5033383;28;45300;-56
2023/03/30 02:20:38;;;;;;;;;3.00;2.00;;;;;16.43;53.48;100294.31;5050416;28;45330;-56
2023/03/30 02:23:07;;;;;;;;;3.00;2.00;;;;;16.20;53.40;100267.78;5034923;28;45531;-52
2023/03/30 02:25:35;;;;;;;;;2.20;1.00;;;;;16.42;53.39;100323.13;5016754;28;45713;-54
2023/03/30 02:28:00;;;;;;;;;2.00;2.00;;;;;16.39;53.58;100309.81;5049997;28;45387;-56
2023/03/30 02:30:31;;;;;;;;;3.00;2.00;;;;;16.36;53.63;100296.47;5016785;28;45499;-55
2023/03/30 02:32:56;;;;;;;;;3.60;1.80;;;;;16.14;53.45;100266.91;5000452;28;45322;-55
2023/03/30 02:35:41;;;;;;;;;2.50;2.50;;;;;16.34;53.36;100310.56;5034033;28;46162;-54
2023/03/30 02:38:38;;;;;;;;;1.40;0.80;;;;;16.35;53.31;100339.94;5034222;28;45291;-55
2023/03/30 02:41:19;;;;;;;;;1.80;1.80;;;;;16.19;53.57;100321.50;5016958;28;45432;-56
2023/03/30 02:43:54;;;;;;;;;2.00;1.00;;;;;16.21;53.74;100345.06;5033570;28;45256;-55
2023/03/30 02:46:24;;;;;;;;;2.00;2.00;;;;;16.25;53.53;100348.97;5034314;28;46461;-55
2023/03/30 02:49:07;;;;;;;;;3.00;3.00;;;;;16.20;53.83;100337.84;5033606;28;45530;-56
2023/03/30 02:51:55;;;;;;;;;2.00;1.60;;;;;16.13;53.93;100328.91;5034476;28;45255;-55
2023/03/30 02:54:21;;;;;;;;;3.00;2.00;;;;;16.16;54.04;100338.63;5016044;28;45478;-56
2023/03/30 02:57:32;;;;;;;;;3.75;2.00;;;;;16.17;53.97;100343.88;5033606;28;45928;-56
2023/03/30 03:00:00;;;;;;;;;1.00;1.00;;;;;15.99;54.06;100328.47;5020200;28;45480;-54
2023/03/30 03:02:33;;;;;;;;;1.20;0.80;;;;;15.55;53.98;100268.41;4999486;28;45345;-56
2023/03/30 03:05:02;;;;;;;;;1.00;0.80;;;;;16.04;54.51;100347.06;5033972;28;45630;-57
2023/03/30 03:07:32;;;;;;;;;2.00;1.00;;;;;15.99;54.92;100345.91;5000695;28;46574;-56
2023/03/30 03:09:58;;;;;;;;;1.40;1.40;;;;;15.82;55.11;100331.28;5000342;28;45292;-55
2023/03/30 03:12:25;;;;;;;;;2.80;1.80;;;;;15.90;54.85;100325.28;5033873;28;45477;-56
2023/03/30 03:14:50;;;;;;;;;2.40;1.00;;;;;15.79;54.88;100318.78;5033401;28;45386;-56
2023/03/30 03:17:21;;;;;;;;;1.00;1.00;;;;;15.92;55.04;100338.88;5015756;28;46455;-56
2023/03/30 03:19:47;;;;;;;;;0.60;0.60;;;;;15.85;55.46;100331.59;5033242;28;45335;-57
2023/03/30 03:22:12;;;;;;;;;1.00;1.00;;;;;15.64;55.69;100308.34;5034940;28;45327;-55
2023/03/30 03:24:39;;;;;;;;;1.25;1.25;;;;;15.64;55.99;100304.75;5037269;28;45362;-55
2023/03/30 03:27:05;;;;;;;;;2.00;2.00;;;;;15.82;55.76;100322.97;5036809;28;46259;-56
2023/03/30 03:29:31;;;;;;;;;2.20;1.20;;;;;15.76;55.87;100324.84;5037055;28;45422;-56
2023/03/30 03:31:56;;;;;;;;;1.00;1.00;;;;;15.68;56.16;100348.25;5037114;28;45400;-55
2023/03/30 03:34:24;;;;;;;;;3.00;3.00;;;;;15.52;56.33;100314.00;5037288;28;45423;-55
2023/03/30 03:36:52;;;;;;;;;1.60;1.00;;;;;15.65;56.50;100354.31;5037109;28;45838;-55
2023/03/30 03:39:18;;;;;;;;;1.00;1.00;;;;;15.58;56.54;100348.94;5018879;28;45364;-55
2023/03/30 03:41:43;;;;;;;;;1.00;1.00;;;;;15.48;56.77;100334.97;5037456;28;45209;-57
2023/03/30 03:44:09;;;;;;;;;1.50;1.00;;;;;15.48;57.36;100342.44;5036733;28;45319;-54
2023/03/30 03:46:34;;;;;;;;;1.75;1.75;;;;;15.53;56.82;100346.09;5036820;28;46012;-55
2023/03/30 03:49:00;;;;;;;;;1.00;0.25;;;;;15.53;56.74;100350.81;5036605;28;45486;-54
2023/03/30 03:51:25;;;;;;;;;3.25;1.00;;;;;15.45;56.96;100343.78;5037028;28;45401;-52
2023/03/30 03:53:52;;;;;;;;;1.50;1.00;;;;;15.48;56.80;100339.66;5004037;27;45564;-56
2023/03/30 03:56:18;;;;;;;;;1.00;1.00;;;;;15.38;56.67;100338.41;5034385;28;46182;-54
2023/03/30 03:58:44;;;;;;;;;1.50;1.50;;;;;15.28;57.63;100335.50;5036906;28;45547;-52
2023/03/30 04:01:13;;;;;;;;;1.50;1.50;;;;;15.32;57.56;100359.63;5036928;28;45681;-56
2023/03/30 04:03:39;;;;;;;;;2.00;2.00;;;;;15.27;57.97;100354.03;5035611;28;45608;-55
2023/03/30 04:06:04;;;;;;;;;5.00;1.00;;;;;15.24;57.87;100350.91;5018581;28;46086;-55
2023/03/30 04:08:30;;;;;;;;;2.00;2.00;;;;;15.25;57.62;100347.91;5036520;28;45489;-56
2023/03/30 04:10:56;;;;;;;;;3.00;1.00;;;;;15.30;57.53;100361.81;5035496;28;45421;-56
2023/03/30 04:13:21;;;;;;;;;2.00;1.00;;;;;15.27;57.86;100354.03;5018269;28;45452;-55
2023/03/30 04:15:47;;;;;;;;;2.00;2.00;;;;;14.93;57.99;100290.47;5036238;28;46050;-55
2023/03/30 04:18:14;;;;;;;;;4.50;2.00;;;;;15.28;57.92;100341.03;5036614;28;45363;-56
2023/03/30 04:20:39;;;;;;;;;1.80;1.80;;;;;15.30;57.86;100341.63;5036702;28;45805;-54
2023/03/30 04:23:08;;;;;;;;;1.00;1.00;;;;;15.28;57.67;100343.81;5036592;28;45611;-58
2023/03/30 04:25:35;;;;;;;;;1.00;1.00;;;;;15.28;58.16;100339.13;5018629;28;46554;-55
2023/03/30 04:28:03;;;;;;;;;2.00;1.00;;;;;15.10;57.74;100311.75;5036368;28;45571;-56
2023/03/30 04:30:29;;;;;;;;;1.00;1.00;;;;;15.23;57.78;100341.81;5036232;28;45780;-55
2023/03/30 04:33:01;;;;;;;;;1.00;0.50;;;;;15.13;58.56;100333.34;5036431;28;45612;-53
2023/03/30 04:35:29;;;;;;;;;2.20;2.20;;;;;15.23;57.96;100358.41;5034925;28;46216;-53
2023/03/30 04:37:56;;;;;;;;;1.20;0.00;;;;;15.16;58.27;100338.38;5036227;28;45360;-56
2023/03/30 04:40:22;;;;;;;;;3.00;1.60;;;;;15.22;58.40;100353.13;5035814;28;45320;-54
2023/03/30 04:42:48;;;;;;;;;3.20;1.60;;;;;15.15;58.54;100347.75;5036086;28;45619;-54
2023/03/30 04:45:15;;;;;;;;;1.00;1.00;;;;;15.10;58.54;100345.75;5035694;28;45379;-56
2023/03/30 04:47:41;;;;;;;;;1.40;1.40;;;;;14.84;58.47;100314.09;5035755;28;45576;-56
2023/03/30 04:50:06;;;;;;;;;1.00;1.00;;;;;15.02;58.88;100344.25;5035750;28;45610;-55
2023/03/30 04:52:32;;;;;;;;;1.00;1.00;;;;;15.04;58.27;100355.88;5036079;28;45607;-55
2023/03/30 04:54:58;;;;;;;;;2.00;1.00;;;;;15.03;58.60;100356.97;5035363;28;45398;-57
2023/03/30 04:57:24;;;;;;;;;1.80;1.00;;;;;15.03;58.79;100362.50;5028977;28;45834;-57
2023/03/30 04:59:49;;;;;;;;;2.50;2.25;;;;;14.97;59.09;100359.91;5014378;28;45323;-56
2023/03/30 05:02:15;;;;;;;;;2.00;2.00;;;;;14.70;58.81;100325.47;5032090;28;45401;-53
2023/03/30 05:04:40;;;;;;;;;1.50;1.50;;;;;14.84;59.14;100338.97;5035226;28;46432;-56
2023/03/30 05:07:06;;;;;;;;;0.75;0.75;;;;;14.96;59.02;100372.91;5034359;28;45415;-57
2023/03/30 05:09:32;;;;;;;;;1.50;1.50;;;;;14.96;59.06;100370.13;5034212;28;45366;-55
2023/03/30 05:11:57;;;;;;;;;2.25;0.00;;;;;14.53;59.09;100302.50;5036126;28;45280;-56
2023/03/30 05:14:23;;;;;;;;;4.00;1.25;;;;;14.89;59.04;100383.28;5034890;28;45937;-55
2023/03/30 05:16:48;;;;;;;;;1.00;1.00;;;;;14.70;59.06;100357.75;5035450;28;45358;-57
2023/03/30 05:19:14;;;;;;;;;4.00;1.00;;;;;14.69;59.49;100361.59;5035578;28;45283;-56
2023/03/30 05:21:40;;;;;;;;;2.75;1.50;;;;;14.61;59.34;100366.44;5017832;28;45419;-58
2023/03/30 05:24:06;;;;;;;;;1.80;1.80;;;;;14.75;59.59;100413.97;5035046;28;46652;-56
2023/03/30 05:26:31;;;;;;;;;1.50;1.50;;;;;14.73;59.63;100407.81;5035244;28;45438;-56
2023/03/30 05:28:57;;;;;;;;;4.00;1.75;;;;;14.58;60.11;100380.75;5035311;28;45482;-57
2023/03/30 05:31:22;;;;;;;;;2.00;2.00;;;;;14.71;60.18;100401.72;5035800;28;45331;-57
2023/03/30 05:33:48;;;;;;;;;3.50;2.00;;;;;14.82;59.84;100429.53;5034752;28;46286;-57
2023/03/30 05:36:13;;;;;;;;;3.25;1.00;;;;;14.76;59.47;100418.41;5035238;28;45401;-53
2023/03/30 05:38:39;;;;;;;;;1.75;1.75;;;;;14.76;59.63;100432.22;5017257;28;45696;-53
2023/03/30 05:41:05;;;;;;;;;2.00;2.00;;;;;14.54;60.05;100384.25;5034938;28;45676;-56
2023/03/30 05:43:32;;;;;;;;;1.40;1.20;;;;;14.65;59.43;100405.47;5035049;28;46017;-55
2023/03/30 05:45:57;;;;;;;;;0.20;0.20;;;;;14.81;59.63;100434.25;5033552;28;45298;-57
2023/03/30 05:48:23;;;;;;;;;1.25;1.25;;;;;14.82;60.18;100429.53;5016954;28;45337;-55
2023/03/30 05:50:48;;;;;;;;;2.00;2.00;;;;;14.85;59.30;100418.84;5017194;28;45403;-57
2023/03/30 05:53:14;;;;;;;;;3.00;2.00;;;;;14.86;59.72;100439.00;5034845;28;46130;-57
2023/03/30 05:55:43;;;;;;;;;1.00;0.50;;;;;14.77;59.71;100431.13;5034631;28;45370;-56
2023/03/30 05:58:09;;;;;;;;;2.40;1.80;;;;;14.83;60.05;100447.81;5017675;28;45559;-58
2023/03/30 06:00:36;;;;;;;;;2.25;1.25;;;;;14.82;60.22;100433.16;5017587;28;45340;-57
2023/03/30 06:03:03;;;;;;;;;3.00;2.00;;;;;14.80;60.10;100440.00;5034626;28;45904;-55
2023/03/30 06:05:29;;;;;;;;;1.60;1.60;;;;;14.77;60.27;100441.34;5004264;28;45311;-57
2023/03/30 06:07:55;;;;;;;;;2.00;2.00;;;;;14.81;60.22;100464.63;5049975;28;45373;-57
2023/03/30 06:10:21;;;;;;;;;3.50;2.00;;;;;14.84;60.57;100463.28;5017284;28;45370;-56
2023/03/30 06:12:47;;;;;;;;;3.20;1.00;;;;;14.82;60.43;100458.00;5034322;28;46099;-58
2023/03/30 06:15:12;;;;;;;;;1.00;1.00;;;;;14.86;60.39;100459.19;5034403;28;45385;-55
2023/03/30 06:17:38;;;;;;;;;2.75;2.50;;;;;14.90;60.24;100463.13;5017075;28;45371;-56
2023/03/30 06:20:11;;;;;;;;;3.00;1.00;;;;;14.90;59.98;100467.84;5034891;28;45975;-56
2023/03/30 06:22:38;;;;;;;;;3.00;2.20;;;;;14.90;60.41;100470.59;5017920;28;47474;-56
2023/03/30 06:25:04;;;;;;;;;5.60;2.20;;;;;14.75;60.07;100446.28;5033976;28;45401;-55
2023/03/30 06:27:31;;;;;;;;;4.00;3.00;;;;;14.42;59.65;100387.06;5034849;28;45273;-57
2023/03/30 06:29:57;;;;;;;;;4.60;1.00;;;;;14.70;59.99;100424.91;5034992;28;45511;-56
2023/03/30 06:32:23;;;;;;;;;2.50;1.25;;;;;14.96;59.68;100463.22;5034622;28;46217;-56
2023/03/30 06:34:48;;;;;;;;;3.25;2.50;;;;;14.98;60.04;100475.72;5034548;28;45318;-57
2023/03/30 06:37:14;;;;;;;;;1.50;1.50;;;;;14.98;59.85;100472.09;5034195;28;45403;-57
2023/03/30 06:39:40;;;;;;;;;3.25;3.00;;;;;14.91;60.10;100452.94;5034989;28;45640;-57
2023/03/30 06:42:05;;;;;;;;;1.50;1.00;;;;;14.90;59.29;100454.03;5034477;28;46175;-59
2023/03/30 06:44:31;;;;;;;;;4.00;2.00;;;;;15.07;59.64;100483.59;5034448;28;45442;-57
2023/03/30 06:46:56;;;;;;;;;6.25;3.25;;;;;14.91;59.85;100462.03;5016845;28;45403;-55
2023/03/30 06:49:22;;;;;;;;;1.00;1.00;;;;;15.13;59.46;100504.72;5049849;28;45593;-55
2023/03/30 06:51:47;;;;;;;;;2.00;2.00;;;;;14.96;59.39;100477.91;5034486;28;46323;-56
2023/03/30 06:54:13;;;;;;;;;3.00;3.00;;;;;15.06;59.43;100495.75;5033977;28;45517;-57
2023/03/30 06:56:39;;;;;;;;;2.20;1.40;;;;;15.00;59.40;100479.06;5033800;28;45469;-57
2023/03/30 06:59:04;;;;;;;;;4.00;3.00;;;;;15.25;59.31;100526.75;5049752;28;45427;-56
2023/03/30 07:01:30;;;;;;;;;4.25;3.00;;;;;15.08;59.40;100499.09;5034246;28;46146;-56
2023/03/30 07:03:55;;;;;;;;;3.00;1.00;;;;;15.24;59.14;100525.94;5034299;28;45308;-57
2023/03/30 07:06:21;;;;;;;;;4.50;2.00;;;;;15.24;59.13;100528.69;5034016;28;45300;-57
2023/03/30 07:08:47;;;;;;;;;3.00;2.00;;;;;15.28;59.34;100529.91;5016721;28;45644;-56
2023/03/30 07:11:13;;;;;;;;;1.20;1.00;;;;;15.27;59.13;100530.13;5033923;28;46772;-55
2023/03/30 07:13:38;;;;;;;;;4.00;4.00;;;;;15.32;59.21;100536.59;5000615;28;45507;-57
2023/03/30 07:16:05;;;;;;;;;3.25;1.50;;;;;14.98;59.16;100492.28;5033933;28;45308;-56
2023/03/30 07:18:30;;;;;;;;;3.20;2.20;;;;;15.35;59.05;100543.53;5034380;28;45319;-59
2023/03/30 07:20:59;;;;;;;;;4.25;2.25;;;;;15.23;59.47;100520.66;5034057;28;45762;-57
2023/03/30 07:23:24;;;;;;;;;2.00;1.20;;;;;15.14;59.18;100509.16;5033846;28;45364;-56
2023/03/30 07:25:50;;;;;;;;;3.50;1.25;;;;;15.42;59.12;100551.69;5033933;28;45312;-56
2023/03/30 07:28:16;;;;;;;;;3.50;2.00;;;;;15.31;58.78;100540.44;5015461;28;45329;-57
2023/03/30 07:30:41;;;;;;;;;2.25;1.00;;;;;15.35;58.74;100557.38;5033617;28;45601;-57
2023/03/30 07:33:07;;;;;;;;;0.50;0.50;;;;;15.34;58.89;100565.91;5032474;28;45399;-55
2023/03/30 07:35:33;;;;;;;;;8.75;3.00;;;;;15.24;58.92;100549.97;5033604;28;45307;-56
2023/03/30 07:37:58;;;;;;;;;3.00;2.25;;;;;15.22;58.69;100564.06;5032683;28;45458;-56
2023/03/30 07:40:24;;;;;;;;;6.00;3.50;;;;;15.14;59.44;100558.91;5015098;28;48140;-56
2023/03/30 07:42:49;;;;;;;;;5.75;2.00;;;;;15.15;59.31;100557.81;5033593;28;45577;-58
2023/03/30 07:45:15;;;;;;;;;4.75;2.00;;;;;15.22;58.62;100561.31;5015794;28;45312;-56
2023/03/30 07:47:40;;;;;;;;;2.75;2.00;;;;;15.20;58.48;100563.44;5016056;28;45515;-57
2023/03/30 07:50:07;;;;;;;;;4.25;1.00;;;;;15.21;58.60;100554.06;5015511;28;47501;-56
2023/03/30 07:52:33;;;;;;;;;6.40;2.60;;;;;15.37;58.62;100566.25;4998911;28;46080;-56
2023/03/30 07:54:58;;;;;;;;;4.50;2.75;;;;;15.33;58.02;100565.09;5015502;28;45428;-55
2023/03/30 07:57:24;;;;;;;;;3.50;2.75;;;;;15.37;57.81;100574.53;5033942;28;45585;-53
2023/03/30 07:59:50;;;;;;;;;6.20;3.80;;;;;15.21;58.02;100544.94;5015350;28;45409;-57
2023/03/30 08:02:16;;;;;;;;;2.50;2.50;;;;;15.05;57.75;100522.53;5033824;28;45319;-55
2023/03/30 08:04:43;;;;;;;;;3.50;3.50;;;;;15.41;57.73;100583.19;5033718;28;45323;-58
2023/03/30 08:07:08;;;;;;;;;3.80;3.80;;;;;15.42;57.37;100591.25;5033947;28;45520;-57
2023/03/30 08:09:34;;;;;;;;;3.00;1.25;;;;;15.43;57.05;100578.25;5016883;28;46470;-56
2023/03/30 08:12:00;;;;;;;;;4.50;2.75;;;;;15.48;56.97;100594.94;5036734;28;46054;-58
2023/03/30 08:14:26;;;;;;;;;4.00;3.00;;;;;15.50;57.09;100589.16;5036729;28;45880;-57
2023/03/30 08:16:55;;;;;;;;;3.60;3.00;;;;;15.50;56.83;100576.19;5036393;28;45445;-57
2023/03/30 08:19:21;;;;;;;;;4.80;3.00;;;;;15.52;56.89;100570.41;5007439;28;46821;-54
2023/03/30 08:21:46;;;;;;;;;4.00;2.00;;;;;15.77;56.38;100610.66;5010848;28;45523;-56
2023/03/30 08:24:12;;;;;;;;;5.75;3.00;;;;;15.80;56.62;100612.94;5048959;28;45495;-57
2023/03/30 08:26:38;;;;;;;;;4.00;4.00;;;;;15.81;56.36;100601.59;5043772;28;45696;-57
2023/03/30 08:29:03;;;;;;;;;3.75;3.25;;;;;15.75;56.19;100587.94;5032048;28;47054;-50
2023/03/30 08:31:31;;;;;;;;;5.00;2.50;;;;;15.78;55.99;100585.50;5032388;28;45405;-54
2023/03/30 08:33:57;;;;;;;;;2.80;2.80;;;;;15.86;56.01;100598.09;5033649;28;45800;-52
2023/03/30 08:36:23;;;;;;;;;6.60;2.00;;;;;15.94;55.69;100610.69;5019837;28;45946;-55
2023/03/30 08:38:49;;;;;;;;;3.00;3.00;;;;;15.91;55.73;100603.69;5034959;28;45457;-58
2023/03/30 08:41:23;;;;;;;;;5.75;3.00;;;;;16.05;56.12;100618.06;5034694;28;45417;-55
2023/03/30 08:43:56;;;;;;;;;6.20;4.80;;;;;15.63;56.37;100558.41;5034993;28;45426;-52
2023/03/30 08:46:22;;;;;;;;;3.20;2.80;;;;;15.97;56.23;100612.97;5001144;28;45564;-59
2023/03/30 08:48:47;;;;;;;;;7.75;2.25;;;;;16.10;56.03;100629.25;5043341;28;46917;-56
2023/03/30 08:51:32;;;;;;;;;3.00;3.00;;;;;16.11;56.20;100628.13;5036580;28;45441;-54
2023/03/30 08:54:00;;;;;;;;;8.80;4.80;;;;;16.15;55.75;100622.09;5036903;28;45352;-56
2023/03/30 08:56:27;;;;;;;;;3.40;2.60;;;;;16.22;55.76;100631.09;5070309;28;45394;-55
2023/03/30 08:59:14;;;;;;;;;5.80;1.00;;;;;16.25;55.84;100630.56;5036601;28;46270;-55
2023/03/30 09:01:51;;;;;;;;;5.40;3.40;;;;;16.24;55.75;100632.47;5046045;28;45729;-57
2023/03/30 09:04:37;;;;;;;;;4.60;4.60;;;;;16.24;55.63;100626.94;5020028;28;45402;-55
2023/03/30 09:07:11;;;;;;;;;1.60;1.60;;;;;16.22;55.55;100642.16;5054076;28;45389;-55
2023/03/30 09:09:41;;;;;;;;;3.80;3.00;;;;;15.91;55.58;100605.63;5025831;28;46185;-53
2023/03/30 09:12:11;;;;;;;;;5.00;3.00;;;;;15.92;56.21;100623.94;5019036;28;45351;-57
2023/03/30 09:14:40;;;;;;;;;6.20;3.40;;;;;16.08;56.40;100653.56;5015859;28;45738;-55
2023/03/30 09:17:13;;;;;;;;;4.40;2.20;;;;;15.84;56.67;100606.63;5015880;28;45557;-55
2023/03/30 09:19:54;;;;;;;;;5.20;4.60;;;;;16.12;56.29;100656.69;5015943;28;46247;-56
2023/03/30 09:22:20;;;;;;;;;2.00;2.00;;;;;16.20;56.72;100652.63;4973223;28;45634;-55
2023/03/30 09:24:46;;;;;;;;;4.60;3.20;;;;;16.25;56.38;100652.72;5031449;28;45513;-55
2023/03/30 09:27:18;;;;;;;;;2.75;2.00;;;;;16.28;56.43;100649.47;5015768;28;45410;-56
2023/03/30 09:29:48;;;;;;;;;5.80;3.40;;;;;16.33;55.81;100657.81;4973807;28;45744;-56
2023/03/30 09:32:32;;;;;;;;;7.20;7.20;;;;;16.54;55.80;100658.13;5033755;28;45404;-59
2023/03/30 09:35:00;;;;;;;;;1.80;1.80;;;;;16.71;54.91;100654.50;5014395;28;45455;-57
2023/03/30 09:37:26;;;;;;;;;5.20;5.20;;;;;16.76;54.80;100658.19;5035773;28;45491;-58
2023/03/30 09:39:51;;;;;;;;;5.80;3.60;;;;;16.87;54.51;100650.03;5053613;28;45688;-57
2023/03/30 09:42:21;;;;;;;;;6.00;4.00;;;;;16.93;54.20;100666.44;4995331;28;45684;-58
2023/03/30 09:44:55;;;;;;;;;5.00;2.00;;;;;16.94;53.77;100654.28;5014148;28;45485;-56
2023/03/30 09:47:32;;;;;;;;;3.00;2.80;;;;;17.00;54.16;100662.66;5028361;28;45424;-56
2023/03/30 09:50:03;;;;;;;;;3.60;3.00;;;;;16.93;53.52;100640.69;5025641;28;46069;-57
2023/03/30 09:52:31;;;;;;;;;5.20;3.60;;;;;17.12;52.65;100657.03;5033823;28;45655;-56
2023/03/30 09:54:56;;;;;;;;;6.20;4.80;;;;;17.09;53.19;100672.25;5014219;28;45708;-59
2023/03/30 09:57:23;;;;;;;;;5.00;4.00;;;;;17.05;52.78;100665.53;5030483;28;45670;-60
2023/03/30 09:59:48;;;;;;;;;2.60;1.60;;;;;16.96;52.71;100665.09;5031664;28;45652;-60
2023/03/30 10:02:15;;;;;;;;;4.50;3.00;;;;;16.76;53.13;100638.78;5016194;28;45564;-60
2023/03/30 10:04:52;;;;;;;;;3.00;3.00;;;;;16.71;53.33;100644.25;5032032;28;45429;-55
2023/03/30 10:07:21;;;;;;;;;2.20;1.20;;;;;16.85;53.36;100672.44;5031397;28;45626;-55
2023/03/30 10:09:47;;;;;;;;;3.20;3.00;;;;;16.87;53.30;100670.25;5013049;28;46738;-52
2023/03/30 10:12:12;;;;;;;;;5.50;4.00;;;;;16.70;52.91;100647.28;4997239;28;45332;-58
2023/03/30 10:14:38;;;;;;;;;1.00;1.00;;;;;16.78;52.96;100669.03;5016443;28;45520;-53
2023/03/30 10:17:03;;;;;;;;;6.25;3.75;;;;;16.89;52.83;100665.31;5046559;28;45519;-55
2023/03/30 10:19:29;;;;;;;;;7.75;4.00;;;;;16.97;52.36;100679.81;5030211;28;46341;-55
2023/03/30 10:21:57;;;;;;;;;2.75;1.50;;;;;16.94;51.96;100645.97;5005459;28;45490;-55
2023/03/30 10:24:23;;;;;;;;;6.20;4.20;;;;;17.13;51.57;100673.38;5051548;28;45410;-54
2023/03/30 10:27:15;;;;;;;;;6.00;4.00;;;;;17.12;52.05;100666.16;5032161;28;46128;-52
2023/03/30 10:29:49;;;;;;;;;6.40;1.40;;;;;17.20;50.98;100665.72;5035258;28;45771;-56
2023/03/30 10:32:17;;;;;;;;;2.00;1.00;;;;;17.12;51.20;100640.41;5033074;28;45884;-55
2023/03/30 10:34:44;;;;;;;;;4.40;3.20;;;;;17.20;51.14;100662.94;5016579;28;45765;-52
2023/03/30 10:37:18;;;;;;;;;4.80;2.00;;;;;17.12;51.53;100671.72;5031817;28;45374;-53
2023/03/30 10:39:45;;;;;;;;;2.80;2.80;;;;;17.08;51.65;100676.13;5030195;28;46158;-49
2023/03/30 10:42:17;;;;;;;;;4.00;2.60;;;;;17.04;51.63;100658.31;5000335;28;45518;-54
2023/03/30 10:44:57;;;;;;;;;4.60;2.00;;;;;17.12;51.77;100657.84;5013107;28;45338;-54
2023/03/30 10:47:51;;;;;;;;;3.00;3.00;;;;;17.23;51.25;100653.25;5012003;28;45530;-60
2023/03/30 10:50:52;;;;;;;;;3.40;3.40;;;;;17.24;50.70;100626.38;5020965;28;45413;-60
2023/03/30 10:53:42;;;;;;;;;3.20;3.00;;;;;17.72;49.67;100651.59;5022451;28;45578;-59
2023/03/30 10:56:33;;;;;;;;;3.00;3.00;;;;;17.74;49.94;100650.22;5010082;28;45710;-59
2023/03/30 10:59:01;;;;;;;;;7.20;3.40;;;;;17.65;49.06;100642.63;5029229;28;45532;-58
2023/03/30 11:01:29;;;;;;;;;4.00;3.20;;;;;17.74;49.59;100638.28;4993296;28;46728;-60
2023/03/30 11:04:01;;;;;;;;;3.00;3.00;;;;;17.70;48.88;100624.09;5008606;28;46822;-60
2023/03/30 11:06:53;;;;;;;;;6.20;3.80;;;;;17.69;48.70;100629.91;4979553;28;45554;-62
2023/03/30 11:09:26;;;;;;;;;1.40;1.40;;;;;17.25;48.96;100594.78;4993850;28;45483;-55
2023/03/30 11:11:55;;;;;;;;;4.60;3.00;;;;;17.78;48.65;100644.13;5012626;28;45649;-54
2023/03/30 11:14:24;;;;;;;;;1.80;1.80;;;;;17.89;49.03;100654.25;4968064;28;45794;-59
2023/03/30 11:16:58;;;;;;;;;1.60;1.60;;;;;18.00;47.70;100652.38;5024777;28;45461;-55
2023/03/30 11:19:24;;;;;;;;;1.60;1.00;;;;;18.12;47.18;100649.47;5027766;28;45667;-57
2023/03/30 11:21:57;;;;;;;;;7.25;2.25;;;;;18.14;47.01;100627.81;4980204;28;45962;-60
2023/03/30 11:24:23;;;;;;;;;3.00;2.00;;;;;18.43;46.68;100660.81;4985115;28;45498;-56
2023/03/30 11:26:50;;;;;;;;;1.80;0.20;;;;;18.49;45.75;100656.13;5009807;28;45466;-58
2023/03/30 11:29:28;;;;;;;;;4.60;2.80;;;;;18.24;45.57;100614.00;5010052;28;45383;-60
2023/03/30 11:32:45;;;;;;;;;6.00;3.00;;;;;18.30;46.44;100648.19;5020954;28;46667;-57
2023/03/30 11:35:29;;;;;;;;;5.00;2.80;;;;;18.08;45.71;100640.00;4966354;28;46155;-54